Time;durP1;ratioP1;P1;durP2;ratioP2;P2;SDS_P1;SDS_P2;PMS_P1;PMS_P2;Temp;Humidity;BMP_temperature;BMP_pressure;BME280_temperature;BME280_humidity;BME280_pressure;Samples;Min_cycle;Max_cycle;Signal;HPM_P1;HPM_P2
2023/12/25 00:07:10;;;;;;;;;;;;;;;7.08;100.00;97283.23;435056;1256;126029;-62
2023/12/25 00:17:16;;;;;;;;;;;;;;;7.23;100.00;97272.84;434737;1255;125705;-62
2023/12/25 00:27:21;;;;;;;;;;;;;;;7.37;100.00;97270.66;434786;1256;125767;-62
2023/12/25 00:37:25;;;;;;;;;;;;;;;7.43;100.00;97269.38;435323;1251;125772;-62
2023/12/25 00:47:30;;;;;;;;;;;;;;;7.42;100.00;97261.48;435210;1256;127409;-63
2023/12/25 00:57:34;;;;;;;;;;;;;;;7.38;100.00;97254.51;435139;1257;126260;-62
2023/12/25 01:07:40;;;;;;;;;;;;;;;7.38;100.00;97250.39;435191;1256;125741;-61
2023/12/25 01:17:45;;;;;;;;;;;;;;;7.44;100.00;97250.48;435683;1255;125888;-61
2023/12/25 01:27:49;;;;;;;;;;;;;;;7.59;100.00;97245.34;435110;1254;127524;-61
2023/12/25 01:37:54;;;;;;;;;;;;;;;7.74;100.00;97244.16;435161;1256;125445;-62
2023/12/25 01:47:58;;;;;;;;;;;;;;;7.92;100.00;97263.64;435133;1257;126836;-62
2023/12/25 01:58:04;;;;;;;;;;;;;;;8.07;100.00;97302.95;435212;1254;125986;-62
2023/12/25 02:08:13;;;;;;;;;;;;;;;8.11;100.00;97334.64;434980;1251;125821;-61
2023/12/25 02:18:18;;;;;;;;;;;;;;;8.03;100.00;97347.35;435089;1254;126018;-62
2023/12/25 02:28:23;;;;;;;;;;;;;;;7.97;100.00;97366.39;434786;1256;127398;-61
2023/12/25 02:38:27;;;;;;;;;;;;;;;7.95;100.00;97388.88;434867;1257;127324;-62
2023/12/25 02:48:32;;;;;;;;;;;;;;;7.83;100.00;97409.19;435280;1256;126292;-61
2023/12/25 02:58:36;;;;;;;;;;;;;;;7.72;100.00;97422.92;434779;1257;125816;-60
2023/12/25 03:08:41;;;;;;;;;;;;;;;7.61;100.00;97420.17;434687;1252;126293;-61
2023/12/25 03:18:45;;;;;;;;;;;;;;;7.50;100.00;97427.72;435168;1254;125644;-61
2023/12/25 03:28:50;;;;;;;;;;;;;;;7.40;100.00;97457.46;434859;1254;126230;-61
2023/12/25 03:38:54;;;;;;;;;;;;;;;7.31;100.00;97461.36;434746;1251;127012;-61
2023/12/25 03:48:59;;;;;;;;;;;;;;;7.20;100.00;97480.21;435268;1254;127285;-61
2023/12/25 03:59:03;;;;;;;;;;;;;;;7.04;100.00;97501.20;434863;1251;126410;-62
2023/12/25 04:09:08;;;;;;;;;;;;;;;6.80;100.00;97487.66;435334;1254;125576;-62
2023/12/25 04:19:12;;;;;;;;;;;;;;;6.70;100.00;97495.61;435720;1251;125957;-62
2023/12/25 04:29:17;;;;;;;;;;;;;;;6.72;100.00;97514.70;435539;1251;126010;-62
2023/12/25 04:39:21;;;;;;;;;;;;;;;6.79;100.00;97509.27;435093;1251;126754;-61
2023/12/25 04:49:25;;;;;;;;;;;;;;;6.91;100.00;97509.88;435128;1254;125899;-62
2023/12/25 04:59:30;;;;;;;;;;;;;;;6.96;100.00;97524.79;434967;1254;126053;-62
2023/12/25 05:09:34;;;;;;;;;;;;;;;6.91;100.00;97535.29;435406;1251;127534;-63
2023/12/25 05:19:38;;;;;;;;;;;;;;;6.94;100.00;97542.75;435445;1254;125508;-62
2023/12/25 05:29:43;;;;;;;;;;;;;;;6.93;100.00;97560.67;435579;1254;126373;-62
2023/12/25 05:39:47;;;;;;;;;;;;;;;6.94;100.00;97574.67;434908;1251;126518;-61
2023/12/25 05:49:53;;;;;;;;;;;;;;;7.10;100.00;97581.96;435096;1254;125758;-62
2023/12/25 05:59:57;;;;;;;;;;;;;;;7.26;100.00;97572.44;436349;1251;126962;-62
2023/12/25 06:10:02;;;;;;;;;;;;;;;7.37;100.00;97580.84;435218;1251;126249;-63
2023/12/25 06:20:08;;;;;;;;;;;;;;;7.44;100.00;97592.56;435345;1251;125964;-63
2023/12/25 06:30:22;;;;;;;;;;;;;;;7.49;100.00;97588.14;436574;1251;126476;-62
2023/12/25 06:40:26;;;;;;;;;;;;;;;7.54;100.00;97592.63;435058;1254;126765;-61
2023/12/25 06:50:30;;;;;;;;;;;;;;;7.55;100.00;97603.84;435043;1251;126113;-61
2023/12/25 07:00:35;;;;;;;;;;;;;;;7.55;100.00;97607.83;434989;1254;125468;-62
2023/12/25 07:10:39;;;;;;;;;;;;;;;7.54;100.00;97616.23;434735;1256;126328;-62
2023/12/25 07:20:44;;;;;;;;;;;;;;;7.49;100.00;97606.61;437053;1251;126346;-62
2023/12/25 07:30:48;;;;;;;;;;;;;;;7.43;100.00;97585.49;435140;1253;126883;-62
2023/12/25 07:40:53;;;;;;;;;;;;;;;7.37;100.00;97598.15;434879;1254;126680;-62
2023/12/25 07:50:57;;;;;;;;;;;;;;;7.37;100.00;97601.34;434808;1254;128151;-61
2023/12/25 08:01:01;;;;;;;;;;;;;;;7.35;100.00;97605.31;435057;1254;127472;-61
2023/12/25 08:11:06;;;;;;;;;;;;;;;7.43;100.00;97608.69;434667;1254;127181;-61
2023/12/25 08:21:11;;;;;;;;;;;;;;;7.53;100.00;97613.63;434915;1251;126462;-61
2023/12/25 08:31:15;;;;;;;;;;;;;;;7.59;100.00;97626.53;435014;1251;125780;-62
2023/12/25 08:41:19;;;;;;;;;;;;;;;7.67;100.00;97640.95;434826;1250;126830;-62
2023/12/25 08:51:23;;;;;;;;;;;;;;;7.73;100.00;97653.06;434919;1251;126565;-61
2023/12/25 09:01:30;;;;;;;;;;;;;;;7.75;100.00;97652.58;435225;1254;125994;-62
2023/12/25 09:11:35;;;;;;;;;;;;;;;7.80;100.00;97658.75;434943;1255;125836;-62
2023/12/25 09:21:39;;;;;;;;;;;;;;;7.86;100.00;97650.39;435041;1254;125728;-62
2023/12/25 09:31:44;;;;;;;;;;;;;;;8.02;100.00;97644.39;435888;1253;125248;-62
2023/12/25 09:41:48;;;;;;;;;;;;;;;8.15;100.00;97650.10;435027;1253;128225;-62
2023/12/25 09:51:55;;;;;;;;;;;;;;;8.17;100.00;97652.69;434664;1256;125756;-62
2023/12/25 10:02:02;;;;;;;;;;;;;;;8.19;100.00;97637.52;435019;1255;126406;-61
2023/12/25 10:12:08;;;;;;;;;;;;;;;8.29;100.00;97639.34;434835;1252;125410;-62
2023/12/25 10:22:27;;;;;;;;;;;;;;;8.41;100.00;97646.87;435060;1253;127825;-61
2023/12/25 10:32:32;;;;;;;;;;;;;;;8.56;100.00;97629.73;434986;1256;126043;-62
2023/12/25 10:42:37;;;;;;;;;;;;;;;8.63;100.00;97623.74;435304;1254;126148;-61
2023/12/25 10:52:44;;;;;;;;;;;;;;;8.68;100.00;97625.88;435793;1254;126190;-62
2023/12/25 11:02:50;;;;;;;;;;;;;;;8.77;100.00;97645.50;435423;1251;126223;-61
2023/12/25 11:12:55;;;;;;;;;;;;;;;8.94;100.00;97661.33;436250;1250;125699;-61
2023/12/25 11:23:02;;;;;;;;;;;;;;;9.14;100.00;97665.02;435665;1250;125971;-62
2023/12/25 11:33:08;;;;;;;;;;;;;;;9.27;100.00;97674.11;435891;1250;126519;-63
2023/12/25 11:43:16;;;;;;;;;;;;;;;9.28;100.00;97685.55;435185;1254;126395;-63
2023/12/25 11:53:34;;;;;;;;;;;;;;;9.30;100.00;97696.59;436940;1251;126152;-62
2023/12/25 12:03:41;;;;;;;;;;;;;;;9.08;100.00;97704.05;435973;1254;126040;-62
2023/12/25 12:13:46;;;;;;;;;;;;;;;8.93;100.00;97721.93;435426;1254;126194;-62
2023/12/25 12:23:50;;;;;;;;;;;;;;;9.03;100.00;97733.49;435597;1250;126038;-63
2023/12/25 12:33:54;;;;;;;;;;;;;;;9.00;100.00;97741.56;435395;1251;126447;-61
2023/12/25 12:44:03;;;;;;;;;;;;;;;8.66;100.00;97746.02;435542;1251;127828;-61
2023/12/25 12:54:08;;;;;;;;;;;;;;;8.33;100.00;97759.91;435602;1254;127668;-62
2023/12/25 13:04:13;;;;;;;;;;;;;;;8.06;100.00;97774.59;435480;1254;127494;-63
2023/12/25 13:14:18;;;;;;;;;;;;;;;7.86;100.00;97796.70;435215;1254;125559;-63
2023/12/25 13:24:22;;;;;;;;;;;;;;;7.77;100.00;97824.80;435090;1250;126146;-62
2023/12/25 13:34:27;;;;;;;;;;;;;;;7.82;100.00;97839.59;434948;1254;125845;-62
2023/12/25 13:44:31;;;;;;;;;;;;;;;7.97;100.00;97845.01;435095;1250;127332;-62
2023/12/25 13:54:35;;;;;;;;;;;;;;;8.09;100.00;97855.04;435242;1250;126478;-62
2023/12/25 14:04:40;;;;;;;;;;;;;;;8.09;100.00;97866.15;434974;1250;126458;-62
2023/12/25 14:14:44;;;;;;;;;;;;;;;8.05;100.00;97872.55;436282;1254;126271;-63
2023/12/25 14:24:49;;;;;;;;;;;;;;;7.89;100.00;97886.06;435266;1254;126063;-63
2023/12/25 14:34:53;;;;;;;;;;;;;;;7.81;100.00;97888.77;435011;1255;126517;-62
2023/12/25 14:44:57;;;;;;;;;;;;;;;7.61;100.00;97912.31;434906;1254;126656;-62
2023/12/25 14:55:02;;;;;;;;;;;;;;;7.56;100.00;97928.01;437164;1252;125840;-63
2023/12/25 15:05:08;;;;;;;;;;;;;;;7.46;100.00;97944.27;437865;1255;126058;-62
2023/12/25 15:15:12;;;;;;;;;;;;;;;7.29;100.00;97972.35;436374;1253;126069;-62
2023/12/25 15:25:17;;;;;;;;;;;;;;;7.06;100.00;97994.73;435147;1256;126391;-62
2023/12/25 15:35:23;;;;;;;;;;;;;;;6.82;100.00;98016.76;434802;1253;126008;-62
2023/12/25 15:45:27;;;;;;;;;;;;;;;6.65;100.00;98033.11;434734;1256;126260;-62
2023/12/25 15:55:31;;;;;;;;;;;;;;;6.48;100.00;98042.46;434858;1256;125836;-62
2023/12/25 16:05:36;;;;;;;;;;;;;;;6.38;100.00;98051.67;436159;1256;127876;-62
2023/12/25 16:15:41;;;;;;;;;;;;;;;6.48;100.00;98063.35;435638;1253;126545;-62
2023/12/25 16:25:45;;;;;;;;;;;;;;;6.62;100.00;98073.13;435047;1254;125744;-62
2023/12/25 16:35:50;;;;;;;;;;;;;;;6.69;100.00;98096.60;434910;1256;125957;-62
2023/12/25 16:45:54;;;;;;;;;;;;;;;6.77;100.00;98110.19;434721;1255;126533;-63
2023/12/25 16:55:59;;;;;;;;;;;;;;;6.83;100.00;98129.86;434897;1254;125732;-63
2023/12/25 17:06:05;;;;;;;;;;;;;;;6.80;100.00;98145.77;435253;1255;126153;-62
2023/12/25 17:16:09;;;;;;;;;;;;;;;6.74;100.00;98159.91;435049;1255;125822;-63
2023/12/25 17:26:13;;;;;;;;;;;;;;;6.71;100.00;98166.17;435095;1254;126785;-62
2023/12/25 17:36:18;;;;;;;;;;;;;;;6.81;100.00;98181.36;435621;1256;127143;-61
2023/12/25 17:46:22;;;;;;;;;;;;;;;6.83;100.00;98198.60;435283;1251;125853;-61
2023/12/25 17:56:27;;;;;;;;;;;;;;;6.70;100.00;98221.75;434824;1255;126297;-61
2023/12/25 18:06:31;;;;;;;;;;;;;;;6.46;100.00;98249.31;435348;1254;125788;-62
2023/12/25 18:16:35;;;;;;;;;;;;;;;6.24;100.00;98262.07;435391;1251;126223;-61
2023/12/25 18:26:40;;;;;;;;;;;;;;;6.04;100.00;98269.66;435366;1256;126835;-62
2023/12/25 18:36:44;;;;;;;;;;;;;;;5.94;100.00;98269.28;435215;1254;125769;-62
2023/12/25 18:46:49;;;;;;;;;;;;;;;5.85;100.00;98277.31;435518;1254;126805;-62
2023/12/25 18:56:53;;;;;;;;;;;;;;;5.85;100.00;98288.58;435508;1251;125673;-62
2023/12/25 19:06:58;;;;;;;;;;;;;;;5.90;100.00;98295.20;435445;1254;126288;-63
2023/12/25 19:17:02;;;;;;;;;;;;;;;6.04;100.00;98303.91;435341;1256;126211;-61
2023/12/25 19:27:08;;;;;;;;;;;;;;;6.10;100.00;98319.33;435850;1256;126178;-61
2023/12/25 19:37:14;;;;;;;;;;;;;;;6.11;100.00;98317.02;435670;1256;127228;-61
2023/12/25 19:47:19;;;;;;;;;;;;;;;6.09;100.00;98331.34;436391;1256;126599;-61
2023/12/25 19:57:23;;;;;;;;;;;;;;;5.94;100.00;98345.85;435128;1255;125880;-61
2023/12/25 20:07:27;;;;;;;;;;;;;;;5.90;100.00;98359.14;435398;1256;125814;-61
2023/12/25 20:17:32;;;;;;;;;;;;;;;5.92;100.00;98356.03;435114;1255;127222;-62
2023/12/25 20:27:36;;;;;;;;;;;;;;;5.81;100.00;98353.77;435059;1255;126813;-62
2023/12/25 20:37:41;;;;;;;;;;;;;;;5.93;100.00;98358.05;435639;1255;126289;-63
2023/12/25 20:47:46;;;;;;;;;;;;;;;6.15;100.00;98359.65;435414;1251;126740;-61
2023/12/25 20:57:51;;;;;;;;;;;;;;;6.24;100.00;98375.55;435072;1254;126959;-62
2023/12/25 21:07:56;;;;;;;;;;;;;;;6.17;100.00;98396.75;435350;1251;125415;-62
2023/12/25 21:18:00;;;;;;;;;;;;;;;5.95;100.00;98407.61;437638;1254;126242;-62
2023/12/25 21:28:05;;;;;;;;;;;;;;;5.85;100.00;98392.10;435156;1255;127461;-62
2023/12/25 21:38:09;;;;;;;;;;;;;;;5.99;100.00;98405.15;434884;1256;126781;-62
2023/12/25 21:48:14;;;;;;;;;;;;;;;6.04;100.00;98421.52;437022;1255;125862;-62
2023/12/25 21:58:19;;;;;;;;;;;;;;;5.92;100.00;98407.64;435107;1254;126396;-61
2023/12/25 22:08:25;;;;;;;;;;;;;;;6.07;100.00;98413.48;435146;1254;126341;-61
2023/12/25 22:18:31;;;;;;;;;;;;;;;6.26;100.00;98426.52;436186;1251;125710;-62
2023/12/25 22:28:36;;;;;;;;;;;;;;;6.36;100.00;98425.68;437147;1254;125555;-62
2023/12/25 22:38:42;;;;;;;;;;;;;;;6.41;100.00;98432.19;435285;1256;125841;-61
2023/12/25 22:48:47;;;;;;;;;;;;;;;6.52;100.00;98441.39;437303;1254;125810;-62
2023/12/25 22:58:51;;;;;;;;;;;;;;;6.52;100.00;98451.81;434986;1251;125473;-62
2023/12/25 23:08:55;;;;;;;;;;;;;;;6.39;100.00;98451.09;435198;1252;126989;-60
2023/12/25 23:19:00;;;;;;;;;;;;;;;6.31;100.00;98446.17;435334;1254;125588;-62
2023/12/25 23:29:04;;;;;;;;;;;;;;;6.30;100.00;98436.55;434952;1254;125929;-61
2023/12/25 23:39:09;;;;;;;;;;;;;;;6.30;100.00;98433.26;435130;1254;126586;-61
2023/12/25 23:49:14;;;;;;;;;;;;;;;6.35;100.00;98437.25;435833;1251;125654;-61
2023/12/25 23:59:18;;;;;;;;;;;;;;;6.39;100.00;98445.84;435102;1254;127024;-61
